Time;durP1;ratioP1;P1;durP2;ratioP2;P2;SDS_P1;SDS_P2;PMS_P1;PMS_P2;Temp;Humidity;BMP_temperature;BMP_pressure;BME280_temperature;BME280_humidity;BME280_pressure;Samples;Min_cycle;Max_cycle;Signal;HPM_P1;HPM_P2
2022/01/12 00:00:39;;;;;;;10.65;4.97;;;;;;;;;;4971324;28;20045;-47
2022/01/12 00:03:06;;;;;;;5.85;3.05;;;;;;;;;;4971288;28;20419;-44
2022/01/12 00:05:31;;;;;;;6.97;2.97;;;;;;;;;;4972257;28;20027;-47
2022/01/12 00:07:57;;;;;;;6.35;3.65;;;;;;;;;;4973391;28;20019;-43
2022/01/12 00:10:22;;;;;;;6.85;3.55;;;;;;;;;;4973370;28;20487;-46
2022/01/12 00:12:48;;;;;;;9.63;4.72;;;;;;;;;;4972081;28;20031;-46
2022/01/12 00:15:14;;;;;;;12.93;5.78;;;;;;;;;;4973288;28;20375;-47
2022/01/12 00:17:39;;;;;;;15.40;4.03;;;;;;;;;;4973695;28;20039;-47
2022/01/12 00:20:05;;;;;;;12.05;5.28;;;;;;;;;;4976761;28;20038;-47
2022/01/12 00:22:32;;;;;;;9.40;4.80;;;;;;;;;;4977334;28;20491;-47
2022/01/12 00:33:10;;;;;;;10.52;5.28;;;;;;;;;;4977420;28;20113;-47
2022/01/12 00:35:36;;;;;;;11.68;5.57;;;;;;;;;;4977392;28;20368;-47
2022/01/12 00:38:02;;;;;;;12.20;5.35;;;;;;;;;;4977299;28;20048;-47
2022/01/12 00:40:27;;;;;;;11.18;5.10;;;;;;;;;;4977526;28;20027;-47
2022/01/12 00:42:53;;;;;;;13.38;4.95;;;;;;;;;;4976991;28;20078;-48
2022/01/12 00:45:20;;;;;;;9.80;5.05;;;;;;;;;;4976906;28;20522;-46
2022/01/12 00:47:45;;;;;;;5.38;3.53;;;;;;;;;;4977339;28;20117;-48
2022/01/12 00:50:11;;;;;;;12.73;6.07;;;;;;;;;;4977159;28;20420;-47
2022/01/12 00:52:37;;;;;;;15.38;6.15;;;;;;;;;;4976949;28;20030;-47
2022/01/12 00:55:03;;;;;;;13.30;6.00;;;;;;;;;;4976708;28;20590;-47
2022/01/12 00:57:30;;;;;;;13.38;6.72;;;;;;;;;;4976552;28;20019;-48
2022/01/12 00:59:56;;;;;;;14.15;6.18;;;;;;;;;;4976878;28;20035;-45
2022/01/12 01:02:22;;;;;;;13.80;6.72;;;;;;;;;;4976856;28;20045;-47
2022/01/12 01:04:48;;;;;;;15.95;6.13;;;;;;;;;;4975671;28;20043;-47
2022/01/12 01:07:14;;;;;;;19.98;7.97;;;;;;;;;;4976816;28;20058;-47
2022/01/12 01:09:45;;;;;;;21.33;7.82;;;;;;;;;;4976777;28;20550;-48
2022/01/12 01:12:10;;;;;;;14.32;6.75;;;;;;;;;;4975264;28;20041;-47
2022/01/12 01:14:47;;;;;;;10.50;5.68;;;;;;;;;;4976349;28;20027;-48
2022/01/12 01:27:54;;;;;;;19.30;8.50;;;;;;;;;;4976207;28;20133;-47
2022/01/12 01:30:19;;;;;;;27.00;9.77;;;;;;;;;;4975662;28;20484;-47
2022/01/12 01:32:46;;;;;;;27.10;9.85;;;;;;;;;;4976270;28;20034;-47
2022/01/12 01:35:11;;;;;;;30.10;9.48;;;;;;;;;;4976009;28;20113;-47
2022/01/12 01:37:40;;;;;;;24.23;9.80;;;;;;;;;;4976251;28;20054;-47
2022/01/12 01:40:10;;;;;;;28.98;11.25;;;;;;;;;;4975048;28;20117;-47
2022/01/12 01:53:39;;;;;;;20.05;8.38;;;;;;;;;;4975865;28;20113;-47
2022/01/12 01:56:05;;;;;;;16.58;7.95;;;;;;;;;;4975443;28;20051;-48
2022/01/12 01:58:30;;;;;;;18.67;8.95;;;;;;;;;;4975841;28;20309;-43
2022/01/12 02:00:56;;;;;;;25.90;9.38;;;;;;;;;;4975634;28;20337;-44
2022/01/12 02:03:26;;;;;;;27.83;9.80;;;;;;;;;;4975816;28;20026;-46
2022/01/12 02:05:51;;;;;;;22.13;9.55;;;;;;;;;;4974210;28;20390;-44
2022/01/12 02:08:17;;;;;;;28.60;10.48;;;;;;;;;;4975732;28;20031;-48
2022/01/12 02:10:42;;;;;;;27.35;10.73;;;;;;;;;;4975631;28;20027;-46
2022/01/12 02:13:09;;;;;;;24.23;9.27;;;;;;;;;;4975624;28;20375;-47
2022/01/12 02:15:35;;;;;;;21.35;10.43;;;;;;;;;;4975563;28;20073;-47
2022/01/12 02:19:09;;;;;;;16.88;7.32;;;;;;;;;;4975477;28;20055;-45
2022/01/12 02:35:22;;;;;;;22.40;7.45;;;;;;;;;;4975051;28;20041;-47
2022/01/12 02:40:33;;;;;;;17.95;8.77;;;;;;;;;;4974966;28;20031;-47
2022/01/12 02:53:46;;;;;;;17.17;7.68;;;;;;;;;;4974755;28;20502;-42
2022/01/12 02:56:11;;;;;;;16.23;8.38;;;;;;;;;;4974427;28;20047;-43
2022/01/12 02:58:38;;;;;;;28.75;14.32;;;;;;;;;;4974801;28;20129;-44
2022/01/12 03:03:39;;;;;;;35.15;16.50;;;;;;;;;;4974519;28;20376;-48
2022/01/12 03:06:07;;;;;;;43.10;20.13;;;;;;;;;;4974645;28;20027;-48
2022/01/12 03:08:39;;;;;;;40.03;21.33;;;;;;;;;;4974629;28;20029;-45
2022/01/12 03:11:12;;;;;;;41.38;21.45;;;;;;;;;;4974334;28;20027;-47
2022/01/12 03:13:38;;;;;;;37.05;18.65;;;;;;;;;;4974507;28;20388;-47
2022/01/12 03:16:14;;;;;;;37.17;17.48;;;;;;;;;;4974573;28;20034;-43
2022/01/12 03:18:41;;;;;;;31.60;14.15;;;;;;;;;;4974218;28;20166;-43
2022/01/12 03:21:07;;;;;;;34.83;15.45;;;;;;;;;;4974454;28;20051;-42
2022/01/12 03:23:33;;;;;;;36.15;16.88;;;;;;;;;;4972735;28;20034;-46
2022/01/12 03:25:59;;;;;;;28.67;13.93;;;;;;;;;;4974122;28;20054;-47
2022/01/12 03:28:24;;;;;;;26.40;9.27;;;;;;;;;;4974050;28;20061;-47
2022/01/12 03:30:58;;;;;;;19.58;7.93;;;;;;;;;;4974294;28;20122;-43
2022/01/12 03:36:23;;;;;;;15.20;7.57;;;;;;;;;;4973953;28;20025;-43
2022/01/12 03:38:40;;;;;;;11.38;6.15;;;;;;;;;;4973826;28;20514;-46
2022/01/12 03:41:06;;;;;;;12.30;6.22;;;;;;;;;;4974160;28;20034;-43
2022/01/12 03:43:31;;;;;;;16.80;6.70;;;;;;;;;;4974060;28;20033;-43
2022/01/12 03:45:57;;;;;;;11.15;6.10;;;;;;;;;;4974026;28;20419;-45
2022/01/12 03:48:22;;;;;;;14.98;5.60;;;;;;;;;;4974033;28;20110;-42
2022/01/12 03:50:48;;;;;;;15.00;6.88;;;;;;;;;;4974027;28;20023;-48
2022/01/12 03:53:14;;;;;;;11.45;5.75;;;;;;;;;;4973317;28;20073;-47
2022/01/12 03:55:42;;;;;;;20.10;7.13;;;;;;;;;;4973510;28;20042;-42
2022/01/12 03:58:10;;;;;;;12.80;6.55;;;;;;;;;;4973965;28;20023;-43
2022/01/12 04:00:36;;;;;;;16.08;8.07;;;;;;;;;;4973636;28;20030;-47
2022/01/12 04:03:04;;;;;;;10.35;4.03;;;;;;;;;;4974159;28;20042;-47
2022/01/12 04:08:18;;;;;;;10.73;5.47;;;;;;;;;;4973908;28;20027;-44
2022/01/12 04:08:21;;;;;;;12.10;5.35;;;;;;;;;;4973607;28;20173;-47
2022/01/12 04:10:55;;;;;;;18.08;8.02;;;;;;;;;;4973638;28;20562;-44
2022/01/12 04:13:22;;;;;;;15.70;7.43;;;;;;;;;;4973472;28;20480;-47
2022/01/12 04:15:52;;;;;;;27.23;8.13;;;;;;;;;;4973853;28;20038;-43
2022/01/12 04:18:18;;;;;;;16.50;6.70;;;;;;;;;;4973695;28;20027;-48
2022/01/12 04:20:48;;;;;;;18.27;7.65;;;;;;;;;;4973765;28;20027;-43
2022/01/12 04:23:18;;;;;;;16.75;7.60;;;;;;;;;;4972121;28;20067;-44
2022/01/12 04:25:51;;;;;;;20.27;8.25;;;;;;;;;;4973493;28;20037;-47
2022/01/12 04:28:21;;;;;;;22.40;8.43;;;;;;;;;;4973670;28;20735;-47
2022/01/12 04:30:48;;;;;;;18.45;8.63;;;;;;;;;;4973668;28;20019;-42
2022/01/12 04:33:14;;;;;;;26.92;9.25;;;;;;;;;;4973569;28;20027;-44
2022/01/12 04:35:47;;;;;;;18.25;8.63;;;;;;;;;;4973639;28;20360;-44
2022/01/12 04:38:13;;;;;;;24.30;8.55;;;;;;;;;;4973622;28;20027;-43
2022/01/12 04:40:39;;;;;;;20.13;8.07;;;;;;;;;;4973243;28;20030;-45
2022/01/12 04:43:07;;;;;;;22.70;8.55;;;;;;;;;;4973279;28;20042;-47
2022/01/12 04:48:09;;;;;;;17.58;7.95;;;;;;;;;;4973484;28;20042;-47
2022/01/12 04:50:37;;;;;;;19.15;8.55;;;;;;;;;;4973235;28;20069;-47
2022/01/12 04:53:04;;;;;;;24.58;9.02;;;;;;;;;;4973040;28;20105;-48
2022/01/12 04:55:30;;;;;;;25.42;10.23;;;;;;;;;;4973099;28;20057;-43
2022/01/12 04:57:55;;;;;;;19.35;8.95;;;;;;;;;;4973357;28;20027;-42
2022/01/12 05:00:22;;;;;;;21.80;7.65;;;;;;;;;;4973384;28;20387;-43
2022/01/12 05:08:24;;;;;;;16.58;7.47;;;;;;;;;;4976696;28;20082;-44
2022/01/12 05:13:35;;;;;;;16.60;6.90;;;;;;;;;;4976487;28;20049;-47
2022/01/12 05:16:01;;;;;;;15.18;8.18;;;;;;;;;;4976283;28;20035;-43
2022/01/12 05:18:30;;;;;;;21.02;8.23;;;;;;;;;;4976249;28;20114;-43
2022/01/12 05:20:56;;;;;;;17.90;7.50;;;;;;;;;;4976345;28;20047;-43
2022/01/12 05:23:22;;;;;;;16.02;8.07;;;;;;;;;;4976251;28;20410;-45
2022/01/12 05:25:48;;;;;;;20.08;8.73;;;;;;;;;;4976719;28;20037;-46
2022/01/12 05:28:14;;;;;;;28.27;11.95;;;;;;;;;;4976151;28;20023;-47
2022/01/12 05:30:40;;;;;;;21.27;10.88;;;;;;;;;;4976413;28;20019;-43
2022/01/12 05:33:06;;;;;;;28.02;10.60;;;;;;;;;;4976401;28;20030;-42
2022/01/12 05:35:33;;;;;;;25.60;9.25;;;;;;;;;;4976272;28;20030;-43
2022/01/12 05:38:00;;;;;;;17.08;8.35;;;;;;;;;;4975862;28;20038;-44
2022/01/12 05:40:25;;;;;;;24.13;8.85;;;;;;;;;;4976211;28;20383;-48
2022/01/12 05:42:52;;;;;;;23.02;9.68;;;;;;;;;;4976227;28;20041;-43
2022/01/12 05:45:19;;;;;;;20.90;8.73;;;;;;;;;;4976102;28;20027;-42
2022/01/12 05:50:14;;;;;;;21.63;9.68;;;;;;;;;;4975892;28;20383;-42
2022/01/12 05:52:40;;;;;;;20.40;8.45;;;;;;;;;;4976007;28;20031;-45
2022/01/12 05:55:09;;;;;;;18.38;8.75;;;;;;;;;;4975709;28;20195;-44
2022/01/12 05:57:36;;;;;;;21.20;8.52;;;;;;;;;;4975902;28;20058;-42
2022/01/12 06:00:05;;;;;;;26.02;10.40;;;;;;;;;;4975818;28;20027;-44
2022/01/12 06:02:30;;;;;;;25.38;10.60;;;;;;;;;;4976032;28;20027;-44
2022/01/12 06:04:56;;;;;;;22.48;10.00;;;;;;;;;;4975619;28;20050;-47
2022/01/12 06:07:21;;;;;;;23.17;10.40;;;;;;;;;;4975475;28;20035;-43
2022/01/12 06:09:47;;;;;;;22.30;9.70;;;;;;;;;;4975726;28;20034;-43
2022/01/12 06:12:13;;;;;;;26.63;9.57;;;;;;;;;;4975682;28;20063;-44
2022/01/12 06:14:38;;;;;;;19.90;9.15;;;;;;;;;;4975603;28;20428;-46
2022/01/12 06:17:04;;;;;;;25.42;10.55;;;;;;;;;;4975325;28;20061;-46
2022/01/12 06:19:30;;;;;;;30.02;11.32;;;;;;;;;;4975218;28;20037;-48
2022/01/12 06:21:55;;;;;;;17.58;8.85;;;;;;;;;;4975413;28;20090;-43
2022/01/12 06:24:21;;;;;;;24.23;10.55;;;;;;;;;;4975457;28;20065;-43
2022/01/12 06:26:47;;;;;;;21.25;10.30;;;;;;;;;;4975130;28;20023;-47
2022/01/12 06:31:49;;;;;;;33.22;12.38;;;;;;;;;;4974990;28;20022;-47
2022/01/12 06:34:15;;;;;;;35.55;16.17;;;;;;;;;;4973550;28;20026;-45
2022/01/12 06:36:40;;;;;;;48.30;20.55;;;;;;;;;;4974897;28;20174;-46
2022/01/12 06:39:09;;;;;;;36.75;16.25;;;;;;;;;;4973893;28;20038;-47
2022/01/12 06:41:35;;;;;;;44.63;18.23;;;;;;;;;;4975128;28;20035;-43
2022/01/12 06:44:00;;;;;;;50.35;20.02;;;;;;;;;;4974787;28;20427;-43
2022/01/12 06:46:29;;;;;;;43.70;20.30;;;;;;;;;;4974757;28;20031;-43
2022/01/12 06:48:55;;;;;;;56.45;23.00;;;;;;;;;;4974610;28;20621;-47
2022/01/12 06:51:21;;;;;;;52.00;20.75;;;;;;;;;;4973476;28;20115;-43
2022/01/12 06:53:46;;;;;;;51.72;23.65;;;;;;;;;;4974498;28;20114;-44
2022/01/12 06:56:15;;;;;;;56.55;23.10;;;;;;;;;;4974386;28;20078;-46
2022/01/12 06:58:41;;;;;;;59.58;22.67;;;;;;;;;;4974523;28;20516;-46
2022/01/12 07:01:07;;;;;;;75.95;39.08;;;;;;;;;;4974415;28;20463;-48
2022/01/12 07:03:32;;;;;;;97.63;45.58;;;;;;;;;;4974468;28;20049;-43
2022/01/12 07:05:58;;;;;;;69.70;29.05;;;;;;;;;;4974425;28;20033;-47
2022/01/12 07:08:23;;;;;;;64.60;24.83;;;;;;;;;;4974661;28;20026;-46
2022/01/12 07:10:49;;;;;;;50.75;22.35;;;;;;;;;;4974569;28;20518;-47
2022/01/12 07:13:14;;;;;;;49.17;22.42;;;;;;;;;;4974394;28;20027;-48
2022/01/12 07:15:41;;;;;;;46.28;20.85;;;;;;;;;;4974298;28;20467;-44
2022/01/12 07:18:07;;;;;;;39.25;18.63;;;;;;;;;;4974152;28;20038;-43
2022/01/12 07:20:33;;;;;;;41.13;17.45;;;;;;;;;;4974142;28;20035;-44
2022/01/12 07:22:59;;;;;;;37.17;18.30;;;;;;;;;;4974363;28;20030;-44
2022/01/12 07:25:24;;;;;;;36.65;17.80;;;;;;;;;;4974061;28;20057;-44
2022/01/12 07:27:50;;;;;;;39.17;19.02;;;;;;;;;;4973938;28;20113;-43
2022/01/12 07:30:15;;;;;;;34.42;18.48;;;;;;;;;;4973895;28;20486;-44
2022/01/12 07:32:41;;;;;;;35.13;17.40;;;;;;;;;;4974134;28;20035;-45
2022/01/12 07:35:07;;;;;;;36.97;17.77;;;;;;;;;;4974144;28;20031;-44
2022/01/12 07:37:32;;;;;;;40.22;20.95;;;;;;;;;;4972717;28;20128;-47
2022/01/12 07:39:58;;;;;;;39.92;19.92;;;;;;;;;;4973836;28;20483;-44
2022/01/12 07:42:24;;;;;;;42.20;22.08;;;;;;;;;;4974037;28;20023;-46
2022/01/12 07:44:57;;;;;;;41.53;19.52;;;;;;;;;;4973795;28;20390;-43
2022/01/12 07:47:23;;;;;;;38.03;20.77;;;;;;;;;;4974209;28;20027;-45
2022/01/12 07:49:48;;;;;;;41.42;21.33;;;;;;;;;;4973941;28;20023;-46
2022/01/12 07:52:14;;;;;;;34.72;19.30;;;;;;;;;;4973926;28;20026;-47
2022/01/12 07:54:39;;;;;;;36.92;21.15;;;;;;;;;;4973589;28;20077;-48
2022/01/12 07:57:04;;;;;;;47.95;25.25;;;;;;;;;;4973662;28;20475;-46
2022/01/12 07:59:30;;;;;;;39.90;22.55;;;;;;;;;;4973857;28;20043;-47
2022/01/12 08:01:55;;;;;;;37.97;19.92;;;;;;;;;;4973894;28;20069;-47
2022/01/12 08:04:21;;;;;;;37.95;20.05;;;;;;;;;;4973579;28;20114;-45
2022/01/12 08:06:46;;;;;;;38.45;20.45;;;;;;;;;;4973594;28;20038;-47
2022/01/12 08:09:12;;;;;;;48.72;28.92;;;;;;;;;;4973455;28;20027;-45
2022/01/12 08:11:37;;;;;;;54.47;31.33;;;;;;;;;;4973532;28;20037;-47
2022/01/12 08:14:02;;;;;;;56.30;28.30;;;;;;;;;;4973720;28;20027;-47
2022/01/12 08:16:28;;;;;;;58.75;30.83;;;;;;;;;;4973811;28;20174;-46
2022/01/12 08:18:56;;;;;;;53.42;29.83;;;;;;;;;;4973413;28;20113;-47
2022/01/12 08:21:21;;;;;;;44.13;24.58;;;;;;;;;;4973658;28;20034;-45
2022/01/12 08:23:47;;;;;;;41.55;21.77;;;;;;;;;;4973684;28;20072;-46
2022/01/12 08:26:12;;;;;;;40.30;21.48;;;;;;;;;;4973726;28;20104;-45
2022/01/12 08:28:38;;;;;;;39.28;23.00;;;;;;;;;;4973656;28;20036;-47
2022/01/12 08:31:04;;;;;;;35.90;20.95;;;;;;;;;;4973603;28;20446;-45
2022/01/12 08:33:30;;;;;;;37.85;21.48;;;;;;;;;;4973488;28;20391;-45
2022/01/12 08:35:55;;;;;;;39.47;22.40;;;;;;;;;;4973509;28;20031;-45
2022/01/12 08:38:21;;;;;;;37.30;20.73;;;;;;;;;;4973595;28;20376;-46
2022/01/12 08:40:46;;;;;;;37.28;21.17;;;;;;;;;;4975714;28;20027;-46
2022/01/12 08:43:13;;;;;;;34.53;21.00;;;;;;;;;;4977296;28;20543;-44
2022/01/12 08:45:39;;;;;;;45.60;24.50;;;;;;;;;;4977064;28;20066;-45
2022/01/12 08:48:04;;;;;;;25.98;15.63;;;;;;;;;;4977259;28;20113;-46
2022/01/12 08:50:30;;;;;;;26.42;15.32;;;;;;;;;;4976881;28;20384;-45
2022/01/12 08:52:55;;;;;;;28.17;15.25;;;;;;;;;;4976998;28;20027;-46
2022/01/12 08:55:22;;;;;;;27.30;15.20;;;;;;;;;;4976658;28;20097;-45
2022/01/12 08:57:48;;;;;;;26.75;15.45;;;;;;;;;;4977046;28;20041;-45
2022/01/12 09:00:14;;;;;;;25.13;15.05;;;;;;;;;;4985305;28;20014;-45
2022/01/12 09:02:40;;;;;;;29.25;16.17;;;;;;;;;;4995968;28;20030;-44
2022/01/12 09:05:07;;;;;;;24.27;14.23;;;;;;;;;;4994488;28;20034;-44
2022/01/12 09:07:33;;;;;;;17.75;9.00;;;;;;;;;;4994582;28;20026;-48
2022/01/12 09:09:59;;;;;;;25.38;13.55;;;;;;;;;;4994194;28;20026;-46
2022/01/12 09:12:24;;;;;;;27.95;14.05;;;;;;;;;;4994144;28;20028;-44
2022/01/12 09:14:51;;;;;;;26.88;13.65;;;;;;;;;;4994120;28;20030;-45
2022/01/12 09:17:19;;;;;;;22.33;12.85;;;;;;;;;;4994207;28;20625;-47
2022/01/12 09:19:47;;;;;;;26.63;13.18;;;;;;;;;;4994278;28;20041;-47
2022/01/12 09:22:14;;;;;;;24.02;13.27;;;;;;;;;;4995937;28;20168;-44
2022/01/12 09:24:39;;;;;;;24.17;13.70;;;;;;;;;;4994712;28;20023;-45
2022/01/12 09:27:05;;;;;;;24.58;14.60;;;;;;;;;;4995235;28;20033;-47
2022/01/12 09:29:30;;;;;;;25.92;13.80;;;;;;;;;;4995910;28;20034;-47
2022/01/12 09:31:56;;;;;;;18.25;10.02;;;;;;;;;;4995454;28;20374;-46
2022/01/12 09:34:22;;;;;;;24.67;12.05;;;;;;;;;;4995421;28;20026;-43
2022/01/12 09:36:47;;;;;;;23.88;14.18;;;;;;;;;;4995769;28;20028;-44
2022/01/12 09:39:13;;;;;;;25.27;13.52;;;;;;;;;;4995509;28;20081;-44
2022/01/12 09:41:38;;;;;;;29.75;14.65;;;;;;;;;;4995279;28;20100;-45
2022/01/12 09:44:05;;;;;;;40.13;17.23;;;;;;;;;;4995317;28;20045;-44
2022/01/12 09:46:30;;;;;;;27.13;14.27;;;;;;;;;;4993698;28;20033;-44
2022/01/12 09:48:57;;;;;;;23.63;13.27;;;;;;;;;;4993406;28;20026;-44
2022/01/12 09:51:23;;;;;;;25.33;12.32;;;;;;;;;;4992845;28;20019;-44
2022/01/12 09:53:50;;;;;;;21.88;10.27;;;;;;;;;;4993547;28;20033;-47
2022/01/12 09:56:21;;;;;;;28.80;12.38;;;;;;;;;;4993061;28;20057;-48
2022/01/12 09:58:50;;;;;;;19.95;10.48;;;;;;;;;;4993731;28;20077;-47
2022/01/12 10:01:26;;;;;;;15.15;8.60;;;;;;;;;;4994855;28;20058;-44
2022/01/12 10:03:51;;;;;;;16.55;8.23;;;;;;;;;;4995155;28;20398;-39
2022/01/12 10:06:17;;;;;;;12.50;8.68;;;;;;;;;;4994947;28;20026;-39
2022/01/12 10:08:43;;;;;;;22.42;11.32;;;;;;;;;;4994567;28;20529;-39
2022/01/12 10:11:15;;;;;;;6.25;4.57;;;;;;;;;;4994151;28;20026;-37
2022/01/12 10:13:41;;;;;;;8.35;4.45;;;;;;;;;;4992413;28;20131;-36
2022/01/12 10:16:13;;;;;;;14.98;8.43;;;;;;;;;;4995025;28;20030;-35
2022/01/12 10:18:48;;;;;;;11.20;5.45;;;;;;;;;;4994627;28;20060;-36
2022/01/12 10:21:27;;;;;;;28.45;11.43;;;;;;;;;;4994500;28;20479;-37
2022/01/12 10:23:59;;;;;;;26.10;11.88;;;;;;;;;;4995006;28;20471;-36
2022/01/12 10:26:30;;;;;;;25.80;12.90;;;;;;;;;;4994816;28;20393;-37
2022/01/12 10:29:05;;;;;;;20.00;10.05;;;;;;;;;;4994503;28;20027;-36
2022/01/12 10:31:42;;;;;;;26.13;11.73;;;;;;;;;;4994712;28;20023;-36
2022/01/12 10:34:07;;;;;;;22.70;12.25;;;;;;;;;;4994589;28;20026;-37
2022/01/12 10:36:41;;;;;;;24.80;12.35;;;;;;;;;;4994215;28;20336;-36
2022/01/12 10:39:09;;;;;;;23.83;13.38;;;;;;;;;;4994200;28;20482;-35
2022/01/12 10:41:34;;;;;;;25.35;12.77;;;;;;;;;;4994171;28;20033;-40
2022/01/12 10:44:00;;;;;;;26.75;12.65;;;;;;;;;;4994494;28;20117;-36
2022/01/12 10:46:29;;;;;;;27.92;15.68;;;;;;;;;;4994271;28;20109;-42
2022/01/12 10:48:56;;;;;;;25.60;13.77;;;;;;;;;;4994495;28;20030;-44
2022/01/12 10:51:25;;;;;;;30.15;16.75;;;;;;;;;;4994328;28;20042;-36
2022/01/12 10:53:53;;;;;;;25.10;12.65;;;;;;;;;;4994246;28;20026;-37
2022/01/12 10:56:21;;;;;;;24.90;12.77;;;;;;;;;;4993896;28;20113;-36
2022/01/12 10:58:48;;;;;;;27.95;13.50;;;;;;;;;;4993825;28;20479;-34
2022/01/12 11:01:20;;;;;;;18.73;10.30;;;;;;;;;;4993453;28;20125;-37
2022/01/12 11:03:47;;;;;;;20.00;11.13;;;;;;;;;;4993104;28;20057;-37
2022/01/12 11:06:13;;;;;;;17.15;8.75;;;;;;;;;;4993726;28;20058;-36
2022/01/12 11:08:41;;;;;;;23.38;12.43;;;;;;;;;;4993766;28;20060;-40
2022/01/12 11:11:07;;;;;;;12.63;6.78;;;;;;;;;;4993600;28;20105;-41
2022/01/12 11:13:34;;;;;;;22.05;11.93;;;;;;;;;;4993467;28;20486;-39
2022/01/12 11:16:00;;;;;;;25.08;12.15;;;;;;;;;;4993194;28;20475;-37
2022/01/12 11:18:29;;;;;;;24.20;12.93;;;;;;;;;;4993343;28;20033;-34
2022/01/12 11:21:24;;;;;;;26.52;13.73;;;;;;;;;;4992954;28;20025;-35
2022/01/12 11:23:51;;;;;;;28.20;15.20;;;;;;;;;;4993129;28;20088;-35
2022/01/12 11:26:19;;;;;;;29.42;14.00;;;;;;;;;;4993168;28;20057;-36
2022/01/12 11:28:47;;;;;;;27.10;13.02;;;;;;;;;;4993082;28;20022;-35
2022/01/12 11:31:18;;;;;;;23.58;13.43;;;;;;;;;;4993700;28;20030;-36
2022/01/12 11:33:45;;;;;;;28.95;14.15;;;;;;;;;;4993738;28;20050;-37
2022/01/12 11:36:47;;;;;;;26.95;14.48;;;;;;;;;;4993690;28;20037;-34
2022/01/12 11:39:18;;;;;;;31.08;14.00;;;;;;;;;;4991193;28;20513;-37
2022/01/12 11:41:47;;;;;;;30.20;14.57;;;;;;;;;;4992716;28;20098;-38
2022/01/12 11:44:22;;;;;;;28.42;13.93;;;;;;;;;;4992828;28;20015;-36
2022/01/12 11:46:53;;;;;;;39.28;19.38;;;;;;;;;;4993174;28;20030;-37
2022/01/12 11:49:29;;;;;;;29.15;16.02;;;;;;;;;;4993526;28;20034;-38
2022/01/12 11:51:56;;;;;;;25.77;14.30;;;;;;;;;;4993341;28;20073;-38
2022/01/12 11:54:30;;;;;;;28.95;14.35;;;;;;;;;;4993180;28;20073;-36
2022/01/12 11:57:04;;;;;;;25.50;14.68;;;;;;;;;;4992985;28;20375;-35
2022/01/12 12:00:00;;;;;;;25.70;13.57;;;;;;;;;;4993013;28;20026;-41
2022/01/12 12:02:32;;;;;;;26.00;14.52;;;;;;;;;;4992268;28;20535;-35
2022/01/12 12:05:01;;;;;;;32.25;15.23;;;;;;;;;;4993119;28;20072;-34
2022/01/12 12:07:27;;;;;;;24.83;13.57;;;;;;;;;;4993117;28;20026;-37
2022/01/12 12:09:59;;;;;;;28.85;14.73;;;;;;;;;;4992983;28;20026;-36
2022/01/12 12:12:34;;;;;;;30.08;16.88;;;;;;;;;;4992747;28;20880;-36
2022/01/12 12:15:02;;;;;;;29.17;14.77;;;;;;;;;;4994374;28;20038;-40
2022/01/12 12:17:30;;;;;;;31.45;15.93;;;;;;;;;;4996939;28;20403;-35
2022/01/12 12:19:57;;;;;;;29.35;14.48;;;;;;;;;;4996891;28;20467;-42
2022/01/12 12:22:25;;;;;;;31.17;15.85;;;;;;;;;;4994708;28;20037;-37
2022/01/12 12:25:00;;;;;;;29.63;15.30;;;;;;;;;;4996722;28;20041;-36
2022/01/12 12:27:28;;;;;;;31.02;15.40;;;;;;;;;;4996995;28;20053;-44
2022/01/12 12:29:54;;;;;;;25.77;13.77;;;;;;;;;;4996632;28;20502;-38
2022/01/12 12:32:36;;;;;;;25.83;14.07;;;;;;;;;;4997022;28;20030;-44
2022/01/12 12:35:08;;;;;;;28.95;14.48;;;;;;;;;;4996915;28;20026;-38
2022/01/12 12:37:40;;;;;;;29.88;15.23;;;;;;;;;;4996807;28;20038;-39
2022/01/12 12:40:17;;;;;;;39.45;20.30;;;;;;;;;;4996807;28;20018;-42
2022/01/12 12:42:46;;;;;;;28.55;15.60;;;;;;;;;;4996210;28;20030;-40
2022/01/12 12:45:12;;;;;;;27.85;14.32;;;;;;;;;;4996222;28;20386;-41
2022/01/12 12:47:37;;;;;;;30.20;14.57;;;;;;;;;;4996388;28;20037;-41
2022/01/12 12:50:08;;;;;;;28.60;14.45;;;;;;;;;;4996566;28;20041;-37
2022/01/12 12:52:38;;;;;;;28.80;15.55;;;;;;;;;;4996557;28;20030;-39
2022/01/12 12:55:13;;;;;;;31.50;15.15;;;;;;;;;;4996399;28;20054;-40
2022/01/12 12:57:50;;;;;;;32.42;16.00;;;;;;;;;;4995767;28;20121;-41
2022/01/12 13:00:19;;;;;;;34.22;16.90;;;;;;;;;;4995889;28;20065;-41
2022/01/12 13:02:50;;;;;;;26.83;14.15;;;;;;;;;;4995648;28;20061;-38
2022/01/12 13:05:24;;;;;;;28.75;15.90;;;;;;;;;;4995861;28;20018;-41
2022/01/12 13:07:50;;;;;;;28.63;14.93;;;;;;;;;;4993279;28;20033;-45
2022/01/12 13:10:22;;;;;;;31.52;14.93;;;;;;;;;;4995872;28;20418;-46
2022/01/12 13:12:50;;;;;;;32.35;16.15;;;;;;;;;;4996355;28;20038;-41
2022/01/12 13:15:35;;;;;;;29.08;15.18;;;;;;;;;;4996404;28;20034;-41
2022/01/12 13:18:07;;;;;;;27.02;13.80;;;;;;;;;;4996130;28;20222;-39
2022/01/12 13:23:20;;;;;;;23.35;13.73;;;;;;;;;;4995613;28;20168;-40
2022/01/12 13:25:46;;;;;;;29.92;15.10;;;;;;;;;;4993730;28;20034;-41
2022/01/12 13:28:11;;;;;;;36.67;18.75;;;;;;;;;;4995121;28;20370;-42
2022/01/12 13:30:48;;;;;;;32.72;15.05;;;;;;;;;;4995845;28;20077;-40
2022/01/12 13:33:13;;;;;;;29.80;13.77;;;;;;;;;;4995955;28;20027;-38
2022/01/12 13:35:39;;;;;;;34.47;22.10;;;;;;;;;;4994083;28;20030;-37
2022/01/12 13:38:06;;;;;;;28.70;14.13;;;;;;;;;;4995634;28;20034;-40
2022/01/12 13:40:37;;;;;;;27.08;12.82;;;;;;;;;;4995150;28;20351;-42
2022/01/12 13:43:03;;;;;;;29.25;13.45;;;;;;;;;;4995234;28;20042;-39
2022/01/12 13:45:43;;;;;;;29.83;13.90;;;;;;;;;;4995273;28;20026;-39
2022/01/12 13:48:14;;;;;;;29.75;14.18;;;;;;;;;;4995246;28;20033;-42
2022/01/12 13:50:43;;;;;;;34.35;16.17;;;;;;;;;;4995164;28;20042;-40
2022/01/12 13:53:09;;;;;;;31.88;15.50;;;;;;;;;;4995312;28;20558;-40
2022/01/12 13:55:36;;;;;;;31.95;15.25;;;;;;;;;;4995009;28;20137;-41
2022/01/12 13:58:06;;;;;;;38.78;17.52;;;;;;;;;;4995230;28;20157;-40
2022/01/12 14:00:34;;;;;;;26.55;13.73;;;;;;;;;;4995504;28;20053;-40
2022/01/12 14:02:59;;;;;;;31.58;15.57;;;;;;;;;;4994864;28;20042;-40
2022/01/12 14:05:37;;;;;;;29.77;13.70;;;;;;;;;;4994659;28;20027;-40
2022/01/12 14:08:10;;;;;;;30.55;15.50;;;;;;;;;;4995304;28;20023;-40
2022/01/12 14:10:36;;;;;;;35.50;15.90;;;;;;;;;;4994244;28;20023;-39
2022/01/12 14:13:02;;;;;;;33.72;15.55;;;;;;;;;;4994602;28;20030;-39
2022/01/12 14:15:30;;;;;;;33.28;15.50;;;;;;;;;;4994633;28;20394;-42
2022/01/12 14:17:58;;;;;;;34.42;16.15;;;;;;;;;;4994344;28;20034;-38
2022/01/12 14:20:42;;;;;;;38.90;16.15;;;;;;;;;;4994873;28;20038;-39
2022/01/12 14:23:09;;;;;;;36.58;17.33;;;;;;;;;;4992893;28;20489;-41
2022/01/12 14:25:50;;;;;;;40.08;17.85;;;;;;;;;;4994311;28;20042;-37
2022/01/12 14:28:28;;;;;;;37.95;16.50;;;;;;;;;;4994102;28;20026;-38
2022/01/12 14:30:54;;;;;;;35.35;16.60;;;;;;;;;;4994617;28;20022;-37
2022/01/12 14:33:20;;;;;;;34.92;14.95;;;;;;;;;;4994476;28;20121;-38
2022/01/12 14:35:45;;;;;;;43.67;16.83;;;;;;;;;;4993858;28;20108;-42
2022/01/12 14:38:11;;;;;;;36.80;16.65;;;;;;;;;;4993738;28;20073;-39
2022/01/12 14:40:37;;;;;;;30.40;13.15;;;;;;;;;;4993960;28;20390;-37
2022/01/12 14:43:06;;;;;;;25.85;13.95;;;;;;;;;;4994102;28;20023;-39
2022/01/12 14:45:33;;;;;;;34.83;15.10;;;;;;;;;;4993116;28;20025;-39
2022/01/12 14:48:02;;;;;;;46.17;21.83;;;;;;;;;;4992843;28;20501;-40
2022/01/12 14:50:30;;;;;;;31.90;15.85;;;;;;;;;;4994429;28;20030;-37
2022/01/12 14:52:55;;;;;;;27.73;14.63;;;;;;;;;;4994322;28;20026;-38
2022/01/12 14:55:21;;;;;;;40.38;16.90;;;;;;;;;;4993976;28;20050;-37
2022/01/12 14:57:47;;;;;;;28.65;13.13;;;;;;;;;;4993448;28;20368;-40
2022/01/12 15:00:24;;;;;;;34.28;16.23;;;;;;;;;;4993205;28;20387;-37
2022/01/12 15:02:57;;;;;;;34.20;15.13;;;;;;;;;;4993361;28;20030;-38
2022/01/12 15:05:23;;;;;;;35.58;15.60;;;;;;;;;;4994108;28;20085;-36
2022/01/12 15:07:49;;;;;;;37.80;15.35;;;;;;;;;;4994026;28;20031;-39
2022/01/12 15:10:15;;;;;;;29.65;14.57;;;;;;;;;;4993489;28;20555;-41
2022/01/12 15:12:41;;;;;;;37.92;16.13;;;;;;;;;;4993353;28;20117;-38
2022/01/12 15:15:10;;;;;;;34.90;14.82;;;;;;;;;;4992150;28;20085;-38
2022/01/12 15:17:36;;;;;;;30.60;14.13;;;;;;;;;;4993207;28;20485;-38
2022/01/12 15:20:08;;;;;;;38.15;14.30;;;;;;;;;;4993428;28;20041;-37
2022/01/12 15:22:35;;;;;;;37.65;14.48;;;;;;;;;;4993877;28;20037;-38
2022/01/12 15:25:00;;;;;;;32.53;14.40;;;;;;;;;;4992981;28;20471;-36
2022/01/12 15:27:26;;;;;;;35.70;14.90;;;;;;;;;;4993141;28;20037;-39
2022/01/12 15:29:52;;;;;;;37.47;14.35;;;;;;;;;;4993493;28;20024;-38
2022/01/12 15:32:18;;;;;;;28.80;13.48;;;;;;;;;;4993680;28;20027;-39
2022/01/12 15:34:43;;;;;;;33.28;14.23;;;;;;;;;;4993458;28;20030;-38
2022/01/12 15:37:09;;;;;;;31.05;14.13;;;;;;;;;;4992125;28;20030;-39
2022/01/12 15:39:34;;;;;;;32.85;14.52;;;;;;;;;;4993279;28;20536;-40
2022/01/12 15:42:00;;;;;;;34.08;13.25;;;;;;;;;;4992823;28;20458;-43
2022/01/12 15:44:25;;;;;;;30.35;13.50;;;;;;;;;;4992441;28;20030;-37
2022/01/12 15:46:52;;;;;;;41.40;19.35;;;;;;;;;;4991552;28;20058;-41